createdAt,value
2023-01-21T00:00:52.425Z,23.97
2023-01-21T00:03:27.652Z,21.73
2023-01-21T00:05:58.404Z,23.70
2023-01-21T00:08:36.604Z,24.63
2023-01-21T00:11:13.851Z,23.23
2023-01-21T00:13:49.550Z,26.47
2023-01-21T00:16:18.138Z,24.20
2023-01-21T00:18:54.690Z,23.87
2023-01-21T00:21:24.229Z,25.00
2023-01-21T00:24:00.543Z,25.13
2023-01-21T00:26:28.975Z,28.50
2023-01-21T00:29:03.841Z,26.63
2023-01-21T00:31:32.791Z,28.67
2023-01-21T00:34:07.534Z,27.70
2023-01-21T00:36:36.248Z,28.10
2023-01-21T00:39:12.579Z,29.20
2023-01-21T00:41:41.059Z,27.10
2023-01-21T00:44:15.909Z,32.37
2023-01-21T00:46:44.826Z,27.07
2023-01-21T00:49:19.718Z,28.47
2023-01-21T00:52:01.585Z,30.27
2023-01-21T00:54:32.710Z,31.93
2023-01-21T00:57:07.720Z,30.90
2023-01-21T00:59:36.257Z,31.00
2023-01-21T01:02:11.615Z,33.73
2023-01-21T01:04:40.108Z,36.57
2023-01-21T01:07:15.635Z,31.90
2023-01-21T01:09:46.037Z,31.77
2023-01-21T01:12:20.733Z,33.50
2023-01-21T01:14:49.275Z,32.40
2023-01-21T01:17:24.976Z,33.20
2023-01-21T01:19:53.867Z,31.83
2023-01-21T01:22:29.510Z,28.60
2023-01-21T01:24:59.651Z,33.47
2023-01-21T01:27:34.628Z,32.83
2023-01-21T01:30:03.289Z,30.40
2023-01-21T01:32:38.638Z,31.53
2023-01-21T01:35:08.302Z,32.20
2023-01-21T01:37:43.648Z,32.50
2023-01-21T01:40:15.851Z,29.50
2023-01-21T01:42:50.734Z,28.33
2023-01-21T01:45:21.814Z,29.23
2023-01-21T01:48:04.639Z,32.80
2023-01-21T01:50:44.567Z,32.90
2023-01-21T01:53:21.758Z,31.13
2023-01-21T01:55:52.191Z,30.27
2023-01-21T01:58:28.947Z,28.17
2023-01-21T02:00:57.974Z,30.27
2023-01-21T02:03:57.643Z,32.20
2023-01-21T02:06:27.780Z,33.33
2023-01-21T02:09:03.801Z,33.40
2023-01-21T02:11:33.937Z,33.13
2023-01-21T02:14:08.767Z,33.53
2023-01-21T02:17:13.282Z,32.23
2023-01-21T02:20:23.777Z,29.93
2023-01-21T02:23:00.806Z,31.00
2023-01-21T02:26:08.666Z,33.27
2023-01-21T02:29:10.610Z,32.53
2023-01-21T02:32:15.679Z,31.97
2023-01-21T02:34:53.936Z,33.50
2023-01-21T02:37:37.759Z,35.23
2023-01-21T02:40:15.096Z,33.47
2023-01-21T02:42:54.819Z,36.47
2023-01-21T02:45:28.695Z,34.40
2023-01-21T02:48:12.673Z,37.73
2023-01-21T02:50:57.853Z,35.10
2023-01-21T02:53:28.159Z,36.10
2023-01-21T02:56:05.810Z,39.57
2023-01-21T02:58:36.629Z,38.30
2023-01-21T03:01:21.704Z,40.97
2023-01-21T03:04:23.911Z,40.10
2023-01-21T03:07:11.720Z,43.43
2023-01-21T03:09:40.626Z,40.10
2023-01-21T03:12:34.814Z,40.07
2023-01-21T03:15:23.952Z,41.87
2023-01-21T03:18:04.367Z,42.40
2023-01-21T03:20:37.381Z,41.07
2023-01-21T03:23:18.746Z,41.07
2023-01-21T03:26:03.317Z,38.57
2023-01-21T03:28:51.700Z,35.33
2023-01-21T03:31:25.343Z,35.03
2023-01-21T03:34:03.726Z,23.27
2023-01-21T03:36:39.427Z,37.50
2023-01-21T03:39:22.839Z,34.10
2023-01-21T03:41:51.405Z,37.63
2023-01-21T03:44:26.695Z,34.67
2023-01-21T03:47:04.758Z,34.13
2023-01-21T03:49:43.764Z,34.77
2023-01-21T03:52:15.441Z,37.67
2023-01-21T03:54:54.953Z,37.67
2023-01-21T03:57:23.524Z,33.73
2023-01-21T03:59:58.978Z,36.80
2023-01-21T04:02:27.727Z,37.57
2023-01-21T04:05:02.886Z,37.13
2023-01-21T04:07:31.609Z,38.20
2023-01-21T04:10:07.776Z,39.07
2023-01-21T04:12:36.365Z,37.83
2023-01-21T04:15:11.849Z,40.00
2023-01-21T04:17:40.350Z,40.50
2023-01-21T04:20:17.955Z,43.47
2023-01-21T04:22:46.808Z,38.17
2023-01-21T04:25:23.749Z,35.77
2023-01-21T04:27:52.630Z,36.87
2023-01-21T04:30:28.777Z,38.93
2023-01-21T04:32:58.336Z,37.60
2023-01-21T04:35:33.894Z,39.83
2023-01-21T04:38:02.696Z,38.13
2023-01-21T04:40:38.720Z,40.33
2023-01-21T04:43:07.149Z,41.13
2023-01-21T04:45:42.928Z,39.13
2023-01-21T04:48:11.524Z,41.30
2023-01-21T04:50:55.972Z,45.00
2023-01-21T04:53:24.373Z,44.33
2023-01-21T04:56:01.736Z,36.77
2023-01-21T04:58:30.718Z,41.97
2023-01-21T05:01:05.833Z,43.03
2023-01-21T05:03:35.428Z,41.80
2023-01-21T05:06:10.037Z,44.27
2023-01-21T05:08:38.584Z,39.63
2023-01-21T05:11:18.814Z,38.97
2023-01-21T05:13:47.967Z,46.03
2023-01-21T05:16:24.048Z,31.03
2023-01-21T05:18:52.860Z,43.30
2023-01-21T05:21:29.216Z,44.57
2023-01-21T05:23:57.776Z,45.50
2023-01-21T05:26:34.762Z,43.77
2023-01-21T05:29:02.979Z,47.60
2023-01-21T05:31:38.010Z,45.00
2023-01-21T05:34:12.940Z,39.53
2023-01-21T05:36:41.526Z,44.17
2023-01-21T05:39:16.757Z,44.80
2023-01-21T05:41:46.978Z,48.67
2023-01-21T05:44:21.828Z,46.77
2023-01-21T05:46:50.278Z,46.47
2023-01-21T05:49:31.771Z,49.93
2023-01-21T05:52:07.625Z,52.90
2023-01-21T05:54:59.987Z,49.77
2023-01-21T05:57:31.501Z,51.60
2023-01-21T06:00:06.985Z,47.50
2023-01-21T06:02:35.782Z,51.93
2023-01-21T06:05:10.792Z,44.03
2023-01-21T06:07:39.326Z,49.20
2023-01-21T06:10:16.123Z,49.90
2023-01-21T06:12:46.739Z,48.77
2023-01-21T06:15:22.863Z,52.10
2023-01-21T06:17:51.439Z,51.07
2023-01-21T06:20:26.994Z,51.03
2023-01-21T06:22:55.463Z,51.73
2023-01-21T06:25:31.018Z,51.33
2023-01-21T06:28:01.481Z,50.73
2023-01-21T06:30:37.059Z,53.13
2023-01-21T06:33:05.879Z,54.37
2023-01-21T06:35:42.911Z,54.50
2023-01-21T06:38:11.255Z,50.43
2023-01-21T06:40:47.871Z,54.33
2023-01-21T06:43:17.706Z,50.67
2023-01-21T06:45:53.990Z,48.37
2023-01-21T06:48:23.582Z,49.80
2023-01-21T06:51:08.894Z,50.43
2023-01-21T06:53:37.285Z,49.57
2023-01-21T06:56:13.140Z,53.43
2023-01-21T06:58:43.118Z,50.53
2023-01-21T07:01:17.923Z,50.20
2023-01-21T07:03:46.367Z,53.20
2023-01-21T07:06:21.089Z,49.93
2023-01-21T07:08:49.604Z,56.57
2023-01-21T07:11:26.071Z,50.77
2023-01-21T07:13:56.075Z,52.63
2023-01-21T07:16:31.581Z,45.80
2023-01-21T07:19:00.512Z,50.07
2023-01-21T07:21:35.976Z,50.43
2023-01-21T07:24:04.755Z,49.93
2023-01-21T07:26:42.871Z,48.27
2023-01-21T07:29:12.945Z,49.50
2023-01-21T07:31:48.085Z,46.57
2023-01-21T07:34:16.834Z,52.57
2023-01-21T07:36:52.122Z,49.57
2023-01-21T07:39:20.553Z,53.97
2023-01-21T07:41:55.940Z,48.00
2023-01-21T07:44:26.039Z,52.53
2023-01-21T07:47:01.146Z,53.07
2023-01-21T07:49:36.433Z,51.00
2023-01-21T07:52:17.948Z,53.17
2023-01-21T07:54:46.812Z,49.43
2023-01-21T07:57:23.216Z,51.57
2023-01-21T07:59:53.536Z,51.50
2023-01-21T08:02:29.032Z,55.17
2023-01-21T08:04:57.674Z,52.13
2023-01-21T08:07:33.128Z,57.90
2023-01-21T08:10:01.978Z,58.77
2023-01-21T08:12:36.898Z,52.53
2023-01-21T08:15:08.842Z,50.73
2023-01-21T08:17:46.913Z,56.67
2023-01-21T08:20:15.792Z,54.77
2023-01-21T08:22:50.958Z,56.40
2023-01-21T08:25:19.804Z,58.40
2023-01-21T08:27:54.980Z,54.23
2023-01-21T08:30:25.371Z,52.80
2023-01-21T08:33:01.107Z,52.83
2023-01-21T08:35:36.112Z,53.90
2023-01-21T08:38:11.685Z,59.40
2023-01-21T08:40:46.903Z,53.73
2023-01-21T08:43:15.384Z,52.67
2023-01-21T08:45:52.151Z,55.97
2023-01-21T08:48:20.794Z,59.33
2023-01-21T08:51:02.013Z,56.13
2023-01-21T08:53:37.347Z,56.07
2023-01-21T08:56:15.000Z,50.17
2023-01-21T08:58:43.314Z,51.03
2023-01-21T09:01:24.008Z,53.00
2023-01-21T09:03:56.750Z,52.50
2023-01-21T09:06:33.092Z,53.87
2023-01-21T09:09:01.933Z,50.27
2023-01-21T09:11:38.095Z,51.43
2023-01-21T09:14:08.150Z,45.83
2023-01-21T09:16:45.208Z,51.87
2023-01-21T09:19:13.466Z,51.27
2023-01-21T09:21:49.135Z,53.30
2023-01-21T09:24:19.461Z,50.83
2023-01-21T09:26:54.979Z,53.03
2023-01-21T09:29:23.743Z,48.73
2023-01-21T09:32:00.215Z,46.30
2023-01-21T09:34:32.938Z,52.20
2023-01-21T09:37:10.039Z,51.00
2023-01-21T09:39:38.549Z,51.53
2023-01-21T09:42:13.995Z,52.10
2023-01-21T09:44:47.378Z,50.33
2023-01-21T09:47:30.167Z,48.40
2023-01-21T09:50:09.129Z,51.47
2023-01-21T09:52:53.029Z,46.27
2023-01-21T09:55:27.113Z,45.20
2023-01-21T09:58:21.992Z,48.70
2023-01-21T10:00:56.714Z,47.17
2023-01-21T10:03:41.306Z,50.23
2023-01-21T10:06:20.633Z,48.77
2023-01-21T10:09:19.184Z,47.93
2023-01-21T10:12:04.302Z,48.43
2023-01-21T10:15:04.350Z,48.50
2023-01-21T10:17:44.914Z,52.20
2023-01-21T10:20:35.699Z,49.63
2023-01-21T10:23:16.657Z,52.20
2023-01-21T10:25:55.362Z,49.87
2023-01-21T10:28:27.040Z,47.27
2023-01-21T10:31:05.075Z,51.90
2023-01-21T10:33:35.561Z,50.27
2023-01-21T10:36:49.039Z,50.37
2023-01-21T10:39:30.767Z,57.07
2023-01-21T10:42:28.002Z,54.40
2023-01-21T10:45:11.048Z,52.87
2023-01-21T10:47:47.030Z,55.03
2023-01-21T10:50:50.096Z,52.67
2023-01-21T10:53:25.662Z,56.60
2023-01-21T10:56:14.215Z,55.43
2023-01-21T10:58:49.637Z,56.53
2023-01-21T11:01:29.342Z,60.20
2023-01-21T11:04:02.185Z,58.90
2023-01-21T11:06:40.084Z,57.63
2023-01-21T11:09:15.758Z,57.37
2023-01-21T11:11:53.220Z,64.13
2023-01-21T11:14:24.745Z,63.00
2023-01-21T11:17:01.202Z,65.23
2023-01-21T11:19:31.842Z,66.30
2023-01-21T11:22:11.423Z,62.93
2023-01-21T11:24:45.071Z,56.60
2023-01-21T11:27:36.156Z,69.47
2023-01-21T11:30:16.634Z,69.10
2023-01-21T11:32:56.238Z,65.87
2023-01-21T11:35:25.330Z,69.00
2023-01-21T11:38:00.250Z,71.20
2023-01-21T11:40:29.048Z,63.87
2023-01-21T11:43:06.500Z,55.60
2023-01-21T11:45:37.034Z,54.53
2023-01-21T11:48:24.285Z,61.87
2023-01-21T11:51:23.135Z,55.93
2023-01-21T11:54:16.126Z,54.97
2023-01-21T11:56:56.564Z,61.27
2023-01-21T11:59:40.261Z,60.77
2023-01-21T12:02:14.600Z,64.53
2023-01-21T12:04:53.273Z,62.63
2023-01-21T12:07:23.995Z,61.67
2023-01-21T12:10:03.148Z,61.63
2023-01-21T12:12:48.251Z,61.67
2023-01-21T12:15:38.268Z,60.07
2023-01-21T12:18:17.890Z,62.73
2023-01-21T12:21:00.168Z,64.50
2023-01-21T12:23:52.732Z,61.53
2023-01-21T12:26:43.169Z,66.37
2023-01-21T12:29:50.300Z,70.70
2023-01-21T12:32:25.254Z,69.27
2023-01-21T12:35:05.269Z,69.30
2023-01-21T12:37:41.329Z,63.00
2023-01-21T12:40:25.291Z,62.53
2023-01-21T12:42:57.253Z,62.10
2023-01-21T12:45:37.287Z,62.53
2023-01-21T12:48:15.316Z,52.70
2023-01-21T12:51:01.234Z,61.57
2023-01-21T12:53:37.505Z,60.33
2023-01-21T12:56:30.196Z,56.10
2023-01-21T12:59:02.208Z,57.13
2023-01-21T13:01:48.329Z,57.20
2023-01-21T13:04:34.784Z,50.07
2023-01-21T13:07:15.313Z,51.80
2023-01-21T13:09:50.937Z,58.43
2023-01-21T13:12:28.215Z,53.17
2023-01-21T13:15:03.297Z,53.47
2023-01-21T13:17:41.207Z,52.97
2023-01-21T13:20:21.237Z,55.80
2023-01-21T13:23:07.226Z,54.27
2023-01-21T13:25:44.241Z,51.13
2023-01-21T13:28:28.399Z,53.27
2023-01-21T13:31:03.152Z,54.43
2023-01-21T13:33:49.347Z,53.87
2023-01-21T13:36:53.252Z,50.63
2023-01-21T13:39:36.351Z,51.37
2023-01-21T13:42:26.588Z,52.63
2023-01-21T13:45:12.341Z,52.60
2023-01-21T13:48:07.865Z,52.00
2023-01-21T13:51:25.586Z,45.63
2023-01-21T13:54:21.036Z,53.83
2023-01-21T13:57:12.359Z,48.13
2023-01-21T13:59:47.463Z,49.00
2023-01-21T14:02:26.447Z,47.60
2023-01-21T14:05:00.975Z,47.27
2023-01-21T14:07:40.209Z,49.27
2023-01-21T14:10:15.786Z,55.37
2023-01-21T14:13:31.207Z,56.63
2023-01-21T14:16:19.404Z,50.13
2023-01-21T14:19:09.226Z,46.77
2023-01-21T14:22:02.472Z,46.87
2023-01-21T14:25:02.386Z,47.83
2023-01-21T14:27:53.207Z,50.43
2023-01-21T14:30:33.401Z,49.10
2023-01-21T14:33:09.118Z,52.50
2023-01-21T14:35:51.388Z,56.23
2023-01-21T14:38:27.281Z,50.47
2023-01-21T14:41:15.249Z,51.00
2023-01-21T14:43:53.588Z,48.20
2023-01-21T14:46:39.290Z,48.47
2023-01-21T14:49:09.372Z,48.63
2023-01-21T14:51:56.390Z,44.40
2023-01-21T14:54:35.255Z,48.80
2023-01-21T14:57:18.737Z,47.47
2023-01-21T14:59:50.571Z,48.93
2023-01-21T15:02:37.469Z,50.23
2023-01-21T15:05:19.080Z,50.77
2023-01-21T15:07:57.500Z,47.37
2023-01-21T15:10:32.144Z,51.83
2023-01-21T15:13:11.848Z,52.50
2023-01-21T15:16:08.521Z,51.80
2023-01-21T15:18:47.303Z,52.13
2023-01-21T15:21:36.735Z,47.40
2023-01-21T15:24:31.522Z,47.70
2023-01-21T15:27:18.451Z,47.10
2023-01-21T15:30:15.573Z,47.33
2023-01-21T15:32:51.372Z,57.90
2023-01-21T15:35:32.500Z,52.10
2023-01-21T15:38:04.151Z,52.73
2023-01-21T15:40:47.498Z,53.07
2023-01-21T15:43:21.769Z,53.53
2023-01-21T15:46:03.398Z,54.87
2023-01-21T15:48:56.187Z,52.53
2023-01-21T15:51:45.362Z,49.23
2023-01-21T15:54:25.613Z,57.03
2023-01-21T15:57:23.631Z,44.60
2023-01-21T16:00:05.942Z,49.67
2023-01-21T16:02:45.484Z,50.97
2023-01-21T16:05:26.661Z,57.13
2023-01-21T16:08:12.371Z,51.50
2023-01-21T16:10:52.406Z,53.77
2023-01-21T16:13:37.977Z,58.37
2023-01-21T16:16:23.587Z,59.30
2023-01-21T16:19:02.340Z,37.43
2023-01-21T16:21:35.615Z,54.77
2023-01-21T16:24:14.483Z,56.77
2023-01-21T16:26:43.030Z,54.90
2023-01-21T16:29:19.423Z,60.47
2023-01-21T16:31:52.964Z,63.17
2023-01-21T16:34:48.532Z,70.63
2023-01-21T16:37:20.274Z,64.87
2023-01-21T16:39:56.445Z,76.27
2023-01-21T16:42:28.265Z,66.03
2023-01-21T16:45:03.327Z,59.97
2023-01-21T16:47:35.603Z,63.20
2023-01-21T16:50:12.495Z,62.40
2023-01-21T16:52:50.272Z,57.63
2023-01-21T16:55:29.474Z,58.77
2023-01-21T16:57:59.581Z,60.83
2023-01-21T17:00:37.395Z,62.10
2023-01-21T17:03:07.408Z,56.53
2023-01-21T17:05:45.291Z,60.87
2023-01-21T17:08:17.215Z,57.83
2023-01-21T17:11:04.371Z,53.93
2023-01-21T17:13:33.380Z,53.83
2023-01-21T17:16:10.445Z,59.63
2023-01-21T17:18:41.737Z,56.10
2023-01-21T17:21:18.403Z,56.23
2023-01-21T17:23:51.912Z,57.93
2023-01-21T17:26:31.509Z,58.13
2023-01-21T17:29:17.439Z,57.90
2023-01-21T17:31:46.963Z,54.13
2023-01-21T17:34:30.418Z,56.67
2023-01-21T17:37:00.772Z,56.83
2023-01-21T17:40:20.428Z,59.17
2023-01-21T17:42:50.181Z,62.23
2023-01-21T17:45:29.431Z,58.30
2023-01-21T17:48:14.965Z,54.40
2023-01-21T17:50:54.430Z,59.33
2023-01-21T17:53:46.204Z,60.37
2023-01-21T17:56:31.011Z,59.40
2023-01-21T17:59:09.557Z,51.77
2023-01-21T18:01:38.483Z,53.80
2023-01-21T18:04:13.523Z,61.17
2023-01-21T18:06:42.338Z,55.97
2023-01-21T18:09:28.592Z,54.57
2023-01-21T18:11:59.223Z,61.83
2023-01-21T18:14:35.411Z,46.03
2023-01-21T18:17:04.641Z,60.43
2023-01-21T18:19:41.441Z,62.43
2023-01-21T18:22:25.337Z,57.23
2023-01-21T18:25:00.416Z,62.03
2023-01-21T18:27:29.202Z,56.97
2023-01-21T18:30:08.537Z,58.40
2023-01-21T18:32:38.172Z,57.97
2023-01-21T18:35:14.429Z,58.23
2023-01-21T18:37:43.790Z,57.80
2023-01-21T18:40:24.489Z,59.17
2023-01-21T18:43:02.595Z,57.77
2023-01-21T18:45:33.190Z,57.50
2023-01-21T18:48:08.603Z,61.30
2023-01-21T18:50:57.650Z,64.31
2023-01-21T18:53:33.586Z,67.67
2023-01-21T18:56:02.384Z,57.70
2023-01-21T18:58:37.477Z,64.07
2023-01-21T19:01:22.091Z,59.17
2023-01-21T19:04:01.463Z,70.63
2023-01-21T19:06:30.523Z,56.53
2023-01-21T19:09:05.509Z,56.37
2023-01-21T19:11:34.189Z,64.30
2023-01-21T19:14:10.775Z,59.70
2023-01-21T19:16:42.125Z,102.67
2023-01-21T19:19:21.464Z,62.87
2023-01-21T19:21:50.132Z,65.87
2023-01-21T19:24:24.498Z,49.73
2023-01-21T19:27:00.876Z,59.77
2023-01-21T19:29:35.658Z,67.10
2023-01-21T19:32:05.670Z,59.47
2023-01-21T19:34:41.511Z,58.40
2023-01-21T19:37:13.673Z,57.70
2023-01-21T19:39:48.631Z,59.63
2023-01-21T19:42:18.109Z,63.20
2023-01-21T19:44:53.531Z,55.50
2023-01-21T19:47:29.750Z,54.13
2023-01-21T19:50:05.645Z,60.77
2023-01-21T19:52:47.977Z,57.53
2023-01-21T19:55:23.672Z,61.60
2023-01-21T19:57:57.406Z,58.97
2023-01-21T20:00:34.709Z,59.77
2023-01-21T20:03:05.036Z,67.00
2023-01-21T20:05:40.536Z,64.10
2023-01-21T20:08:13.184Z,70.80
2023-01-21T20:10:48.529Z,74.47
2023-01-21T20:13:17.896Z,61.57
2023-01-21T20:15:54.598Z,77.20
2023-01-21T20:18:26.878Z,78.87
2023-01-21T20:21:02.535Z,81.03
2023-01-21T20:23:32.755Z,83.23
2023-01-21T20:26:08.517Z,81.67
2023-01-21T20:28:39.976Z,61.57
2023-01-21T20:31:18.647Z,59.70
2023-01-21T20:33:49.682Z,81.93
2023-01-21T20:36:27.567Z,89.50
2023-01-21T20:38:56.903Z,90.27
2023-01-21T20:41:31.554Z,77.77
2023-01-21T20:44:03.840Z,93.13
2023-01-21T20:46:39.542Z,86.90
2023-01-21T20:49:12.811Z,80.57
2023-01-21T20:51:47.593Z,61.07
2023-01-21T20:54:24.906Z,89.93
2023-01-21T20:56:59.685Z,80.77
2023-01-21T20:59:30.671Z,67.60
2023-01-21T21:02:05.751Z,85.37
2023-01-21T21:04:35.834Z,82.47
2023-01-21T21:07:10.618Z,78.43
2023-01-21T21:09:39.907Z,79.77
2023-01-21T21:12:17.653Z,74.93
2023-01-21T21:14:45.895Z,69.20
2023-01-21T21:17:20.721Z,77.60
2023-01-21T21:19:50.741Z,71.73
2023-01-21T21:22:25.704Z,74.50
2023-01-21T21:24:54.921Z,73.17
2023-01-21T21:27:29.602Z,71.57
2023-01-21T21:30:00.204Z,57.33
2023-01-21T21:32:35.855Z,67.87
2023-01-21T21:35:07.106Z,65.07
2023-01-21T21:37:42.618Z,52.10
2023-01-21T21:40:12.414Z,59.43
2023-01-21T21:43:09.651Z,50.80
2023-01-21T21:45:41.008Z,58.37
2023-01-21T21:48:39.871Z,57.00
2023-01-21T21:51:28.151Z,52.40
2023-01-21T21:54:09.612Z,49.37
2023-01-21T21:56:45.800Z,60.20
2023-01-21T21:59:15.817Z,51.63
2023-01-21T22:01:51.621Z,52.73
2023-01-21T22:04:21.679Z,44.97
2023-01-21T22:06:58.599Z,48.70
2023-01-21T22:09:27.086Z,41.80
2023-01-21T22:12:02.590Z,45.83
2023-01-21T22:14:30.870Z,46.30
2023-01-21T22:17:07.753Z,25.47
2023-01-21T22:19:37.779Z,44.80
2023-01-21T22:22:14.749Z,42.30
2023-01-21T22:24:44.835Z,44.77
2023-01-21T22:27:20.655Z,42.27
2023-01-21T22:29:49.454Z,42.40
2023-01-21T22:32:24.774Z,39.33
2023-01-21T22:34:53.315Z,37.00
2023-01-21T22:37:30.657Z,37.83
2023-01-21T22:39:59.614Z,41.70
2023-01-21T22:42:34.768Z,38.73
2023-01-21T22:45:03.341Z,42.70
2023-01-21T22:47:38.577Z,43.20
2023-01-21T22:50:08.311Z,43.70
2023-01-21T22:52:51.779Z,47.30
2023-01-21T22:55:26.668Z,46.20
2023-01-21T22:58:02.606Z,46.37
2023-01-21T23:00:38.041Z,48.30
2023-01-21T23:03:15.708Z,49.70
2023-01-21T23:05:44.492Z,52.60
2023-01-21T23:08:22.121Z,53.10
2023-01-21T23:10:50.348Z,58.33
2023-01-21T23:13:25.776Z,48.63
2023-01-21T23:15:54.463Z,36.93
2023-01-21T23:18:29.636Z,43.40
2023-01-21T23:20:58.667Z,38.80
2023-01-21T23:23:35.817Z,48.07
2023-01-21T23:26:05.114Z,46.40
2023-01-21T23:28:41.822Z,40.70
2023-01-21T23:31:14.296Z,41.87
2023-01-21T23:33:49.765Z,27.70
2023-01-21T23:36:18.582Z,42.63
2023-01-21T23:38:55.702Z,47.13
2023-01-21T23:41:24.219Z,49.03
2023-01-21T23:43:59.887Z,45.27
2023-01-21T23:46:28.909Z,35.17
2023-01-21T23:49:03.865Z,41.87
2023-01-21T23:51:40.113Z,41.90
2023-01-21T23:54:19.037Z,47.10
2023-01-21T23:56:48.419Z,49.63
2023-01-21T23:59:23.703Z,48.97
